Terminal Aerodrome Forecast
Issued by NWS Wilmington, OH

Current Version | Previous Version | Graphics & Text | Print | Product List | Glossary On
Versions: 1 2 3 4 5 6 7 8 9 10 11 12 13 14 15 16 17 18 19
068
FTUS41 KILN 210600 CCA
TAFDAY
TAF COR
KDAY 210600Z 2106/2206 01008KT P6SM OVC060
     FM210800 02006KT P6SM SCT008 BKN015
     FM211100 02006KT P6SM OVC030
     FM211400 35008KT P6SM BKN035
     FM212000 30012KT P6SM SCT040=

USA.gov is the U.S. government's official web portal to all federal, state and local government web resources and services.